X  Close Metar Aviation Weather Data     KOMA Eppley Airfield
Temperature
°F Temperature
41°F Dewpoint
63% Humidity



Wind
21 MPH
34 KM/H
9 M/S
18 KTS



320°
NW
Current Conditions

Partly Cloudy Partly Cloudy
Pressure 1013.92 (hPa) - 29.94 (inHg)
Visibility 10 (mile) - 16.1 (km)
Airport
Airport-code KOMA

Location: Eppley Airfield
Distance: 20 (mi)

Metar:
KOMA 210552Z 32018G27KT 10SM FEW130 BKN250 12/05 A2994 RMK AO2 PK WND 33027/0550 SLP137 T01170050 10183 20117 402280117 51023

Time: 05-21-2022 00:52 CDT